Time;durP1;ratioP1;P1;durP2;ratioP2;P2;SDS_P1;SDS_P2;PMS_P1;PMS_P2;Temp;Humidity;BMP_temperature;BMP_pressure;BME280_temperature;BME280_humidity;BME280_pressure;Samples;Min_cycle;Max_cycle;Signal;HPM_P1;HPM_P2
2022/10/11 00:00:33;;;;;;;17.23;1.95;;;6.40;99.90;;;;;;5028743;28;20544;-80
2022/10/11 00:02:59;;;;;;;15.18;2.80;;;6.40;99.90;;;;;;5030116;28;20037;-80
2022/10/11 00:05:25;;;;;;;10.55;1.83;;;6.40;99.90;;;;;;5031455;28;20048;-81
2022/10/11 00:07:51;;;;;;;13.45;1.90;;;6.40;99.90;;;;;;5030435;28;20120;-80
2022/10/11 00:10:17;;;;;;;12.00;2.38;;;6.40;99.90;;;;;;5030308;28;20219;-79
2022/10/11 00:12:43;;;;;;;10.80;1.95;;;6.40;99.90;;;;;;5029958;28;20570;-85
2022/10/11 00:15:12;;;;;;;12.30;1.83;;;6.50;99.90;;;;;;5030929;28;20042;-81
2022/10/11 00:17:38;;;;;;;13.20;1.75;;;6.40;99.90;;;;;;5031058;28;20041;-79
2022/10/11 00:20:04;;;;;;;16.92;2.80;;;6.70;99.90;;;;;;5029988;28;20045;-81
2022/10/11 00:22:29;;;;;;;16.35;2.40;;;6.30;99.90;;;;;;5012405;28;20053;-84
2022/10/11 00:24:57;;;;;;;11.95;1.92;;;6.30;99.90;;;;;;5030915;28;20043;-81
2022/10/11 00:27:23;;;;;;;9.30;2.38;;;6.30;99.90;;;;;;5029737;28;20728;-81
2022/10/11 00:29:49;;;;;;;12.30;2.42;;;6.30;99.90;;;;;;5029614;28;20059;-81
2022/10/11 00:32:15;;;;;;;16.77;3.03;;;6.30;99.90;;;;;;5029723;28;20381;-83
2022/10/11 00:34:40;;;;;;;10.38;1.85;;;6.30;99.90;;;;;;5030221;28;20103;-81
2022/10/11 00:37:06;;;;;;;16.65;2.63;;;6.10;99.90;;;;;;5045625;28;20682;-82
2022/10/11 00:39:32;;;;;;;18.38;1.83;;;6.20;99.90;;;;;;5036204;28;20041;-80
2022/10/11 00:41:57;;;;;;;14.48;2.05;;;6.20;99.90;;;;;;5053911;28;20056;-80
2022/10/11 00:44:26;;;;;;;11.13;1.73;;;6.20;99.90;;;;;;5053711;28;20083;-81
2022/10/11 00:46:54;;;;;;;11.63;1.80;;;6.10;99.90;;;;;;5050923;28;20083;-79
2022/10/11 00:49:39;;;;;;;15.23;1.92;;;6.10;99.90;;;;;;5054033;28;20068;-80
2022/10/11 00:52:20;;;;;;;15.93;2.00;;;6.10;99.90;;;;;;5054191;28;20089;-80
2022/10/11 00:54:47;;;;;;;14.10;1.90;;;6.10;99.90;;;;;;5051983;28;20439;-81
2022/10/11 00:57:18;;;;;;;15.77;2.22;;;6.10;99.90;;;;;;5053666;28;20053;-80
2022/10/11 00:59:49;;;;;;;7.85;1.63;;;6.10;99.90;;;;;;5053415;28;20045;-80
2022/10/11 01:02:16;;;;;;;12.25;1.80;;;6.00;99.90;;;;;;5053439;28;20075;-80
2022/10/11 01:04:42;;;;;;;12.45;2.75;;;6.10;99.90;;;;;;5033759;28;20045;-84
2022/10/11 01:07:08;;;;;;;15.50;2.75;;;6.10;99.90;;;;;;5053397;28;20049;-79
2022/10/11 01:09:35;;;;;;;15.07;2.78;;;6.10;99.90;;;;;;5053327;28;20049;-80
2022/10/11 01:12:05;;;;;;;12.68;1.80;;;6.90;99.90;;;;;;5053428;28;20127;-80
2022/10/11 01:14:49;;;;;;;13.15;2.13;;;6.00;99.90;;;;;;5051422;28;20082;-80
2022/10/11 01:17:48;;;;;;;12.38;1.50;;;6.10;99.90;;;;;;5034879;28;20045;-81
2022/10/11 01:20:34;;;;;;;8.82;1.40;;;6.00;99.90;;;;;;5053289;28;20179;-81
2022/10/11 01:23:24;;;;;;;13.60;1.77;;;5.90;99.90;;;;;;5053187;28;20057;-81
2022/10/11 01:26:08;;;;;;;11.60;2.28;;;6.00;99.90;;;;;;5052640;28;20095;-80
2022/10/11 01:28:51;;;;;;;10.27;2.00;;;5.90;99.90;;;;;;5052786;28;20690;-83
2022/10/11 01:31:23;;;;;;;17.13;2.10;;;5.90;99.90;;;;;;5052724;28;20049;-81
2022/10/11 01:34:02;;;;;;;21.23;2.00;;;5.80;99.90;;;;;;5052887;28;20052;-80
2022/10/11 01:36:31;;;;;;;7.25;1.58;;;6.50;99.90;;;;;;5034941;28;20045;-80
2022/10/11 01:39:12;;;;;;;8.45;1.63;;;5.80;99.90;;;;;;5034972;28;20489;-83
2022/10/11 01:41:41;;;;;;;12.48;2.17;;;5.70;99.90;;;;;;5052624;28;20095;-79
2022/10/11 01:44:09;;;;;;;12.98;1.55;;;5.70;99.90;;;;;;5052960;28;20048;-81
2022/10/11 01:46:35;;;;;;;15.65;2.83;;;5.60;99.90;;;;;;5032995;28;20074;-81
2022/10/11 01:49:02;;;;;;;11.05;1.65;;;5.70;99.90;;;;;;5033532;28;20040;-80
2022/10/11 01:51:39;;;;;;;12.32;2.42;;;5.60;99.90;;;;;;5052467;28;20045;-80
2022/10/11 01:54:32;;;;;;;13.43;1.70;;;5.50;99.90;;;;;;5034567;28;20087;-81
2022/10/11 01:57:27;;;;;;;8.75;1.65;;;5.60;99.90;;;;;;5051014;28;20074;-80
2022/10/11 02:00:14;;;;;;;12.55;1.88;;;5.70;99.90;;;;;;5034855;28;20170;-81
2022/10/11 02:02:58;;;;;;;11.45;1.80;;;5.60;99.90;;;;;;5034511;28;20045;-79
2022/10/11 02:05:24;;;;;;;11.38;1.42;;;5.60;99.90;;;;;;5032167;28;20049;-80
2022/10/11 02:07:54;;;;;;;11.13;2.20;;;5.50;99.90;;;;;;5032550;28;20056;-79
2022/10/11 02:10:29;;;;;;;15.55;2.08;;;6.10;99.90;;;;;;5032465;28;20045;-80
2022/10/11 02:13:31;;;;;;;12.85;2.15;;;5.50;99.90;;;;;;5033182;28;20504;-79
2022/10/11 02:16:01;;;;;;;8.18;1.58;;;5.50;99.90;;;;;;5032438;28;20046;-80
2022/10/11 02:18:31;;;;;;;13.63;1.92;;;5.50;99.90;;;;;;5035003;28;20041;-78
2022/10/11 02:21:00;;;;;;;12.02;1.63;;;6.20;99.90;;;;;;5041799;28;20037;-79
2022/10/11 02:23:32;;;;;;;10.55;1.40;;;6.10;99.90;;;;;;5045923;28;20053;-81
2022/10/11 02:25:58;;;;;;;10.05;1.63;;;5.30;99.90;;;;;;5048729;28;20136;-79
2022/10/11 02:28:28;;;;;;;12.38;1.80;;;5.30;99.90;;;;;;5034231;28;20057;-79
2022/10/11 02:30:56;;;;;;;8.73;1.55;;;5.40;99.90;;;;;;5031955;28;20059;-80
2022/10/11 02:33:42;;;;;;;12.80;1.63;;;5.40;99.90;;;;;;5036868;28;20452;-80
2022/10/11 02:36:18;;;;;;;20.02;2.03;;;5.30;99.90;;;;;;5060135;28;20048;-79
2022/10/11 02:38:48;;;;;;;9.52;1.48;;;5.70;99.90;;;;;;5051611;28;20048;-80
2022/10/11 02:41:38;;;;;;;13.23;2.08;;;5.20;99.90;;;;;;5051799;28;20088;-82
2022/10/11 02:44:17;;;;;;;7.82;1.50;;;5.20;99.90;;;;;;5049832;28;20063;-80
2022/10/11 02:46:45;;;;;;;5.50;1.30;;;5.10;99.90;;;;;;5051279;28;20049;-79
2022/10/11 02:49:12;;;;;;;13.13;1.73;;;5.10;99.90;;;;;;5045990;28;20041;-80
2022/10/11 02:51:38;;;;;;;11.60;1.05;;;5.00;99.90;;;;;;5050796;28;20495;-80
2022/10/11 02:54:04;;;;;;;6.40;1.30;;;4.90;99.90;;;;;;5049756;28;20048;-83
2022/10/11 02:56:29;;;;;;;8.07;1.20;;;4.90;99.90;;;;;;5050681;28;20037;-80
2022/10/11 02:58:55;;;;;;;4.22;0.75;;;4.80;99.90;;;;;;5051336;28;20139;-83
2022/10/11 03:01:20;;;;;;;9.02;1.50;;;4.80;99.90;;;;;;5051221;28;20045;-80
2022/10/11 03:03:46;;;;;;;13.65;2.08;;;4.80;99.90;;;;;;5049605;28;20099;-80
2022/10/11 03:06:12;;;;;;;3.67;0.85;;;4.70;99.90;;;;;;5051114;28;20040;-81
2022/10/11 03:08:38;;;;;;;11.25;1.30;;;4.70;99.90;;;;;;5050934;28;20059;-79
2022/10/11 03:11:03;;;;;;;7.70;1.20;;;4.70;99.90;;;;;;5050961;28;20115;-82
2022/10/11 03:13:29;;;;;;;4.10;1.05;;;4.90;99.90;;;;;;5032666;28;20050;-80
2022/10/11 03:15:55;;;;;;;9.82;1.30;;;4.70;99.90;;;;;;5032043;28;20060;-80
2022/10/11 03:18:21;;;;;;;5.80;0.85;;;4.70;99.90;;;;;;5020419;28;20085;-77
2022/10/11 03:20:46;;;;;;;6.00;1.40;;;4.70;99.90;;;;;;5027001;28;20484;-80
2022/10/11 03:23:13;;;;;;;8.20;1.25;;;4.60;99.90;;;;;;5012793;28;20053;-79
2022/10/11 03:25:39;;;;;;;11.05;1.45;;;4.60;99.90;;;;;;5014286;28;20559;-81
2022/10/11 03:28:04;;;;;;;10.25;1.50;;;4.60;99.90;;;;;;5030627;28;20053;-81
2022/10/11 03:30:30;;;;;;;13.90;2.10;;;4.60;99.90;;;;;;5013121;28;20107;-81
2022/10/11 03:32:56;;;;;;;13.00;1.38;;;4.70;99.90;;;;;;5030562;28;20048;-80
2022/10/11 03:35:21;;;;;;;7.97;1.42;;;4.70;99.90;;;;;;5030998;28;20124;-80
2022/10/11 03:37:47;;;;;;;6.45;1.00;;;4.70;99.90;;;;;;5028851;28;20158;-81
2022/10/11 03:40:13;;;;;;;9.93;1.52;;;4.60;99.90;;;;;;5030828;28;20045;-79
2022/10/11 03:42:39;;;;;;;6.38;1.20;;;4.60;99.90;;;;;;5030504;28;20119;-80
2022/10/11 03:45:07;;;;;;;9.07;1.65;;;4.60;99.90;;;;;;5050220;28;20052;-83
2022/10/11 03:47:36;;;;;;;6.40;1.60;;;4.60;99.90;;;;;;5048357;28;20080;-79
2022/10/11 03:50:03;;;;;;;7.60;1.40;;;4.50;99.90;;;;;;5025726;28;20143;-81
2022/10/11 03:52:28;;;;;;;11.35;1.65;;;5.20;99.90;;;;;;5030014;28;20118;-80
2022/10/11 03:54:54;;;;;;;13.25;1.90;;;4.60;99.90;;;;;;5030311;28;20129;-81
2022/10/11 03:57:20;;;;;;;8.43;1.17;;;4.70;99.90;;;;;;5031599;28;20060;-79
2022/10/11 03:59:46;;;;;;;9.40;1.60;;;4.60;99.90;;;;;;5030220;28;20057;-81
2022/10/11 04:02:12;;;;;;;9.00;1.52;;;4.60;99.90;;;;;;5012840;28;20103;-83
2022/10/11 04:04:38;;;;;;;13.23;2.28;;;4.60;99.90;;;;;;5030170;28;20041;-81
2022/10/11 04:07:04;;;;;;;10.80;1.23;;;4.60;99.90;;;;;;5030396;28;20053;-80
2022/10/11 04:09:29;;;;;;;9.77;2.00;;;5.40;99.90;;;;;;5031016;28;20041;-79
2022/10/11 04:11:55;;;;;;;5.68;1.20;;;4.60;99.90;;;;;;5012059;28;20128;-81
2022/10/11 04:14:21;;;;;;;14.13;1.80;;;4.60;99.90;;;;;;5012430;28;20408;-79
2022/10/11 04:16:46;;;;;;;11.05;1.55;;;4.60;99.90;;;;;;4995704;28;20111;-80
2022/10/11 04:19:12;;;;;;;10.32;1.52;;;4.70;99.90;;;;;;5035373;28;20098;-80
2022/10/11 04:21:37;;;;;;;14.20;2.25;;;4.70;99.90;;;;;;5049377;28;20051;-81
2022/10/11 04:24:03;;;;;;;15.25;1.83;;;4.70;99.90;;;;;;5049709;28;20052;-80
2022/10/11 04:26:29;;;;;;;12.75;1.88;;;4.80;99.90;;;;;;5049524;28;20044;-80
2022/10/11 04:28:55;;;;;;;12.77;2.38;;;4.80;99.90;;;;;;5047704;28;20135;-80
2022/10/11 04:31:21;;;;;;;7.65;1.40;;;4.80;99.90;;;;;;5049798;28;20053;-79
2022/10/11 04:33:47;;;;;;;11.38;1.92;;;4.80;99.90;;;;;;5049705;28;20098;-79
2022/10/11 04:36:12;;;;;;;15.63;1.80;;;4.80;99.90;;;;;;5022109;28;20069;-80
2022/10/11 04:38:38;;;;;;;10.25;1.52;;;4.90;99.90;;;;;;5012208;28;20048;-79
2022/10/11 04:41:12;;;;;;;18.45;2.50;;;4.90;99.90;;;;;;5038180;28;20496;-82
2022/10/11 04:43:38;;;;;;;12.63;2.10;;;5.00;99.90;;;;;;5015450;28;20381;-80
2022/10/11 04:46:04;;;;;;;12.60;1.90;;;5.00;99.90;;;;;;5040398;28;20048;-81
2022/10/11 04:48:30;;;;;;;13.93;1.85;;;5.00;99.90;;;;;;5011778;28;20061;-81
2022/10/11 04:50:56;;;;;;;9.98;2.10;;;5.10;99.90;;;;;;5028343;28;20369;-80
2022/10/11 04:53:22;;;;;;;22.02;2.65;;;5.10;99.90;;;;;;5029807;28;20045;-80
2022/10/11 04:56:00;;;;;;;19.73;2.53;;;5.90;99.90;;;;;;5012730;28;20607;-80
2022/10/11 04:58:29;;;;;;;11.27;1.88;;;5.20;99.90;;;;;;5029705;28;20049;-80
2022/10/11 05:00:55;;;;;;;16.20;2.05;;;5.30;99.90;;;;;;5011819;28;20072;-83
2022/10/11 05:03:21;;;;;;;13.60;2.40;;;5.40;99.90;;;;;;5044825;28;20142;-80
2022/10/11 05:05:47;;;;;;;15.23;2.78;;;5.40;99.90;;;;;;5051483;28;20507;-81
2022/10/11 05:08:13;;;;;;;10.18;2.55;;;5.50;99.90;;;;;;5061190;28;20041;-81
2022/10/11 05:10:38;;;;;;;21.23;2.58;;;5.50;99.90;;;;;;5049235;28;20048;-80
2022/10/11 05:13:04;;;;;;;17.15;2.58;;;5.60;99.90;;;;;;5048975;28;20041;-80
2022/10/11 05:15:29;;;;;;;19.13;2.60;;;5.60;99.90;;;;;;5014139;28;20053;-80
2022/10/11 05:17:55;;;;;;;12.27;3.05;;;5.70;99.90;;;;;;5030030;28;20120;-80
2022/10/11 05:20:21;;;;;;;14.13;3.30;;;5.80;99.90;;;;;;5031560;28;20046;-82
2022/10/11 05:22:46;;;;;;;18.90;3.35;;;5.80;99.90;;;;;;5040091;28;20045;-82
2022/10/11 05:25:12;;;;;;;12.15;2.55;;;5.80;99.90;;;;;;5051958;28;20044;-81
2022/10/11 05:27:38;;;;;;;14.98;3.17;;;5.80;99.90;;;;;;5050769;28;20045;-80
2022/10/11 05:30:04;;;;;;;15.00;3.28;;;6.40;99.90;;;;;;5033726;28;20111;-81
2022/10/11 05:32:30;;;;;;;20.77;3.53;;;5.90;99.90;;;;;;5035090;28;20056;-81
2022/10/11 05:34:56;;;;;;;16.30;2.90;;;6.00;99.90;;;;;;5052907;28;20052;-81
2022/10/11 05:37:22;;;;;;;15.00;2.67;;;6.00;99.90;;;;;;5051498;28;20033;-80
2022/10/11 05:39:47;;;;;;;16.00;2.83;;;6.10;99.90;;;;;;5053197;28;20041;-81
2022/10/11 05:42:14;;;;;;;12.48;3.00;;;6.10;99.90;;;;;;5052986;28;20045;-79
2022/10/11 05:44:39;;;;;;;13.75;2.72;;;6.10;99.90;;;;;;5052226;28;20055;-80
2022/10/11 05:47:05;;;;;;;18.70;3.40;;;6.10;99.90;;;;;;5052765;28;20060;-79
2022/10/11 05:49:31;;;;;;;16.58;3.15;;;6.10;99.90;;;;;;5050832;28;20131;-79
2022/10/11 05:51:56;;;;;;;19.23;3.25;;;6.60;99.90;;;;;;5052447;28;20040;-79
2022/10/11 05:54:22;;;;;;;21.35;4.22;;;6.20;99.90;;;;;;5052715;28;20045;-81
2022/10/11 05:56:48;;;;;;;15.25;3.00;;;6.20;99.90;;;;;;5034762;28;20451;-80
2022/10/11 05:59:13;;;;;;;16.88;2.67;;;6.20;99.90;;;;;;5032457;28;20056;-81
2022/10/11 06:01:39;;;;;;;16.55;2.58;;;6.60;99.90;;;;;;5052545;28;20554;-86
2022/10/11 06:04:05;;;;;;;9.30;1.67;;;6.20;99.90;;;;;;5048866;28;20079;-79
2022/10/11 06:06:30;;;;;;;8.75;2.22;;;6.50;99.90;;;;;;5020180;28;20106;-80
2022/10/11 06:08:56;;;;;;;15.98;2.42;;;6.10;99.90;;;;;;5033724;28;20590;-80
2022/10/11 06:11:25;;;;;;;17.05;2.80;;;6.10;99.90;;;;;;5032384;28;20524;-79
2022/10/11 06:13:55;;;;;;;16.00;3.53;;;6.10;99.90;;;;;;5037057;28;20135;-83
2022/10/11 06:16:20;;;;;;;10.65;3.05;;;6.10;99.90;;;;;;5059113;28;20192;-81
2022/10/11 06:18:46;;;;;;;18.15;3.05;;;6.40;99.90;;;;;;5038979;28;20044;-81
2022/10/11 06:21:12;;;;;;;17.70;3.10;;;6.20;99.90;;;;;;5034178;28;20095;-87
2022/10/11 06:23:38;;;;;;;19.67;2.55;;;6.20;99.90;;;;;;5051750;28;20407;-79
2022/10/11 06:26:06;;;;;;;12.93;2.22;;;6.20;99.90;;;;;;5050325;28;20052;-79
2022/10/11 06:28:34;;;;;;;18.83;2.50;;;6.20;99.90;;;;;;5051559;28;20061;-81
2022/10/11 06:31:01;;;;;;;14.85;2.50;;;6.10;99.90;;;;;;5051534;28;20057;-80
2022/10/11 06:33:27;;;;;;;13.48;2.28;;;6.20;99.90;;;;;;5051770;28;20511;-79
2022/10/11 06:36:08;;;;;;;11.30;1.92;;;6.20;99.90;;;;;;5033098;28;20138;-82
2022/10/11 06:38:34;;;;;;;14.57;2.35;;;6.20;99.90;;;;;;5051927;28;20043;-82
2022/10/11 06:41:11;;;;;;;10.82;2.08;;;6.20;99.90;;;;;;5046111;28;20037;-80
2022/10/11 06:43:37;;;;;;;12.90;2.05;;;6.30;99.90;;;;;;5031948;28;20092;-82
2022/10/11 06:46:03;;;;;;;11.85;2.45;;;6.30;99.90;;;;;;5032422;28;20076;-82
2022/10/11 06:48:30;;;;;;;17.75;2.80;;;6.40;99.90;;;;;;5031775;28;20044;-80
2022/10/11 06:50:57;;;;;;;11.80;2.13;;;6.40;99.90;;;;;;5031836;28;20408;-80
2022/10/11 06:53:23;;;;;;;14.75;1.85;;;6.40;99.90;;;;;;5031577;28;20057;-80
2022/10/11 06:55:49;;;;;;;15.88;2.03;;;7.00;99.90;;;;;;5031701;28;20084;-80
2022/10/11 06:58:14;;;;;;;19.23;2.75;;;6.50;99.90;;;;;;5032576;28;20382;-81
2022/10/11 07:00:40;;;;;;;18.65;2.58;;;7.00;99.90;;;;;;5031350;28;20048;-80
2022/10/11 07:03:07;;;;;;;12.18;2.65;;;6.60;99.90;;;;;;5030906;28;20044;-80
2022/10/11 07:05:33;;;;;;;9.60;1.73;;;6.70;99.90;;;;;;5031509;28;20057;-81
2022/10/11 07:07:59;;;;;;;16.88;2.28;;;6.70;99.90;;;;;;5038580;28;20567;-80
2022/10/11 07:10:25;;;;;;;8.32;1.83;;;6.80;99.90;;;;;;5051291;28;20116;-80
2022/10/11 07:12:51;;;;;;;16.13;2.17;;;6.80;99.90;;;;;;5049390;28;20041;-82
2022/10/11 07:15:17;;;;;;;15.00;2.13;;;6.90;99.90;;;;;;5050308;28;20045;-80
2022/10/11 07:17:42;;;;;;;12.23;2.42;;;7.50;99.90;;;;;;5047712;28;20049;-78
2022/10/11 07:20:09;;;;;;;9.63;1.98;;;7.10;99.90;;;;;;5032112;28;20103;-78
2022/10/11 07:22:34;;;;;;;17.58;3.47;;;7.20;99.90;;;;;;5031880;28;20057;-80
2022/10/11 07:25:00;;;;;;;14.68;2.15;;;7.20;99.90;;;;;;5030583;28;20053;-78
2022/10/11 07:27:26;;;;;;;15.75;2.78;;;7.30;99.90;;;;;;5030591;28;20136;-79
2022/10/11 07:29:52;;;;;;;14.65;2.25;;;7.40;99.90;;;;;;5040523;28;20396;-80
2022/10/11 07:32:17;;;;;;;19.42;2.33;;;7.50;99.90;;;;;;5046353;28;20068;-80
2022/10/11 07:34:43;;;;;;;9.65;1.80;;;7.60;99.90;;;;;;5030609;28;20495;-80
2022/10/11 07:37:09;;;;;;;21.05;2.45;;;7.70;99.90;;;;;;5012881;28;20045;-76
2022/10/11 07:39:34;;;;;;;11.23;2.35;;;7.80;99.90;;;;;;5050264;28;20056;-82
2022/10/11 07:42:00;;;;;;;12.52;2.30;;;7.90;99.90;;;;;;5050122;28;20706;-82
2022/10/11 07:44:26;;;;;;;14.82;2.47;;;8.00;99.90;;;;;;5034219;28;20132;-80
2022/10/11 07:46:51;;;;;;;10.15;2.75;;;8.10;99.90;;;;;;5032782;28;20073;-82
2022/10/11 07:49:17;;;;;;;9.82;2.20;;;8.20;99.90;;;;;;5040960;28;20467;-81
2022/10/11 07:51:42;;;;;;;15.80;2.63;;;8.50;99.90;;;;;;5050388;28;20072;-80
2022/10/11 07:54:08;;;;;;;12.25;2.75;;;8.50;99.90;;;;;;5060563;28;20128;-82
2022/10/11 07:56:35;;;;;;;16.08;2.40;;;8.60;99.90;;;;;;5050362;28;20033;-80
2022/10/11 07:59:04;;;;;;;17.58;2.47;;;8.70;99.90;;;;;;5031684;28;20078;-81
2022/10/11 08:01:31;;;;;;;12.20;2.75;;;8.80;99.90;;;;;;5045548;28;20037;-85
2022/10/11 08:03:57;;;;;;;14.73;2.22;;;8.80;99.90;;;;;;5052589;28;20102;-80
2022/10/11 08:06:28;;;;;;;12.25;2.25;;;9.10;99.90;;;;;;5049870;28;20045;-82
2022/10/11 08:08:53;;;;;;;17.63;3.55;;;9.00;99.90;;;;;;5049881;28;20052;-85
2022/10/11 08:11:25;;;;;;;12.32;2.63;;;9.20;99.90;;;;;;5031966;28;20049;-90
2022/10/11 08:13:51;;;;;;;19.38;2.47;;;9.20;99.90;;;;;;5050054;28;20442;-87
2022/10/11 08:16:17;;;;;;;12.38;2.92;;;9.40;99.90;;;;;;5032135;28;20101;-79
2022/10/11 08:18:43;;;;;;;18.95;2.42;;;9.50;99.90;;;;;;5032024;28;20090;-79
2022/10/11 08:21:10;;;;;;;14.80;2.45;;;9.60;99.90;;;;;;5067474;28;20056;-78
2022/10/11 08:23:36;;;;;;;12.18;2.10;;;10.10;99.90;;;;;;5052236;28;20081;-77
2022/10/11 08:26:03;;;;;;;14.48;2.72;;;9.90;99.90;;;;;;5070220;28;20055;-84
2022/10/11 08:28:29;;;;;;;11.55;2.15;;;10.10;99.90;;;;;;5071025;28;20170;-79
2022/10/11 08:30:55;;;;;;;17.35;3.80;;;10.30;99.90;;;;;;5055801;28;20501;-81
2022/10/11 08:33:23;;;;;;;14.80;2.53;;;10.30;99.90;;;;;;5052207;28;20056;-87
2022/10/11 08:35:50;;;;;;;14.15;2.10;;;10.60;99.90;;;;;;5052104;28;20056;-89
2022/10/11 08:38:16;;;;;;;12.02;2.25;;;10.80;99.90;;;;;;5050638;28;20076;-82
2022/10/11 08:40:51;;;;;;;11.63;1.83;;;10.90;99.90;;;;;;5050303;28;20079;-82
2022/10/11 08:43:28;;;;;;;11.60;2.38;;;11.70;99.90;;;;;;5051257;28;20060;-92
2022/10/11 08:45:57;;;;;;;16.90;2.40;;;11.80;99.90;;;;;;5053865;28;20557;-94
2022/10/11 08:48:37;;;;;;;9.05;1.75;;;11.60;99.90;;;;;;5052020;28;20144;-89
2022/10/11 08:51:19;;;;;;;14.80;2.30;;;11.90;99.90;;;;;;5051510;28;20094;-81
2022/10/11 08:53:48;;;;;;;12.85;2.08;;;12.10;99.90;;;;;;5049916;28;20077;-83
2022/10/11 08:56:16;;;;;;;15.68;2.47;;;12.70;99.90;;;;;;5032013;28;20182;-85
2022/10/11 08:58:53;;;;;;;13.65;2.53;;;12.20;99.90;;;;;;5027840;28;20045;-84
2022/10/11 09:01:26;;;;;;;19.63;2.42;;;12.50;99.90;;;;;;5046815;28;20041;-83
2022/10/11 09:03:52;;;;;;;13.45;2.60;;;13.30;99.90;;;;;;5033771;28;20076;-83
2022/10/11 09:06:39;;;;;;;14.98;2.20;;;13.30;99.90;;;;;;5015759;28;20133;-84
2022/10/11 09:09:25;;;;;;;12.40;2.47;;;12.90;99.90;;;;;;5033454;28;20057;-87
2022/10/11 09:12:14;;;;;;;11.20;2.13;;;13.10;99.90;;;;;;5033792;28;20056;-87
2022/10/11 09:14:48;;;;;;;17.52;2.20;;;13.60;99.90;;;;;;5004912;28;20065;-81
2022/10/11 09:17:26;;;;;;;15.77;2.10;;;13.40;99.90;;;;;;5010797;28;20568;-83
2022/10/11 09:20:13;;;;;;;14.23;2.55;;;13.40;99.90;;;;;;5010640;28;20054;-85
2022/10/11 09:23:07;;;;;;;17.23;2.20;;;13.40;99.90;;;;;;5010785;28;20466;-82
2022/10/11 09:25:45;;;;;;;13.90;1.97;;;13.80;99.90;;;;;;5011192;28;20649;-84
2022/10/11 09:28:27;;;;;;;12.40;1.92;;;14.10;99.90;;;;;;5011070;28;20450;-84
2022/10/11 09:30:55;;;;;;;12.10;2.08;;;14.20;99.90;;;;;;5011069;28;20104;-80
2022/10/11 09:33:32;;;;;;;17.75;2.33;;;14.70;99.90;;;;;;5011127;28;20624;-89
2022/10/11 09:36:39;;;;;;;13.00;2.33;;;14.50;99.90;;;;;;4996601;28;20062;-86
2022/10/11 09:39:17;;;;;;;11.25;2.00;;;14.70;99.90;;;;;;5010588;28;20160;-83
2022/10/11 09:41:55;;;;;;;11.32;2.22;;;15.00;99.90;;;;;;5010800;28;20069;-82
2022/10/11 09:44:24;;;;;;;12.13;2.28;;;15.30;99.90;;;;;;5010587;28;20516;-86
2022/10/11 09:46:52;;;;;;;14.40;2.17;;;15.10;99.90;;;;;;4994748;28;20056;-82
2022/10/11 09:49:22;;;;;;;11.23;2.08;;;14.90;99.90;;;;;;5010917;28;20046;-86
2022/10/11 09:51:55;;;;;;;11.18;1.90;;;15.00;99.90;;;;;;5005805;28;20057;-84
2022/10/11 09:54:26;;;;;;;14.02;2.08;;;15.10;99.90;;;;;;5032815;28;20049;-83
2022/10/11 09:56:52;;;;;;;11.43;2.17;;;15.30;99.90;;;;;;5033086;28;20072;-85
2022/10/11 09:59:33;;;;;;;14.30;2.55;;;16.00;99.90;;;;;;5033222;28;20037;-88
2022/10/11 10:02:16;;;;;;;14.10;2.05;;;15.60;99.90;;;;;;5033229;28;20038;-84
2022/10/11 10:05:03;;;;;;;13.75;1.98;;;15.80;99.90;;;;;;5032730;28;20052;-82
2022/10/11 10:07:32;;;;;;;14.77;2.35;;;15.90;99.90;;;;;;5032916;28;20076;-83
2022/10/11 10:09:58;;;;;;;15.43;2.28;;;16.30;99.90;;;;;;5031377;28;20049;-85
2022/10/11 10:12:28;;;;;;;12.98;2.30;;;16.40;99.90;;;;;;5032864;28;20087;-83
2022/10/11 10:15:06;;;;;;;16.40;2.80;;;16.40;99.90;;;;;;5033166;28;20124;-85
2022/10/11 10:17:32;;;;;;;11.35;2.67;;;16.40;99.90;;;;;;5014940;28;20539;-86
2022/10/11 10:19:59;;;;;;;11.93;2.20;;;16.70;99.90;;;;;;5032596;28;20068;-83
2022/10/11 10:22:30;;;;;;;10.55;2.25;;;16.70;99.90;;;;;;5032502;28;20060;-87
2022/10/11 10:25:00;;;;;;;11.05;1.77;;;16.60;99.90;;;;;;5014434;28;20567;-86
2022/10/11 10:27:28;;;;;;;9.27;2.00;;;16.70;99.90;;;;;;5032525;28;20514;-85
2022/10/11 10:30:21;;;;;;;10.32;2.42;;;17.10;99.90;;;;;;5032349;28;20053;-85
2022/10/11 10:33:07;;;;;;;10.98;1.85;;;17.20;99.90;;;;;;5012609;28;20053;-86
2022/10/11 10:35:57;;;;;;;12.40;2.17;;;16.90;99.90;;;;;;5032283;28;20077;-85
2022/10/11 10:38:22;;;;;;;13.27;1.90;;;17.10;99.90;;;;;;5014071;28;20115;-84
2022/10/11 10:41:01;;;;;;;14.20;2.25;;;17.30;99.90;;;;;;5031621;28;20456;-85
2022/10/11 10:43:33;;;;;;;9.32;1.40;;;17.40;99.90;;;;;;5014287;28;20055;-81
2022/10/11 10:46:02;;;;;;;13.02;1.90;;;17.40;99.90;;;;;;5035008;28;20053;-85
2022/10/11 10:48:48;;;;;;;12.32;2.10;;;17.50;99.90;;;;;;5051654;28;20052;-86
2022/10/11 10:51:37;;;;;;;9.52;1.30;;;17.50;99.90;;;;;;5034050;28;20055;-92
2022/10/11 10:54:27;;;;;;;11.27;1.80;;;17.90;99.90;;;;;;5051571;28;20514;-89
2022/10/11 10:57:00;;;;;;;16.65;2.63;;;18.00;99.90;;;;;;5032852;28;20053;-83
2022/10/11 11:00:08;;;;;;;10.90;1.58;;;17.90;99.90;;;;;;5033570;28;20048;-86
2022/10/11 11:02:53;;;;;;;12.40;2.03;;;18.10;99.90;;;;;;5033189;28;20515;-83
2022/10/11 11:05:43;;;;;;;;;;;18.40;99.90;;;;;;5051412;28;20059;-78
2022/10/11 11:08:20;;;;;;;11.63;1.92;;;18.30;99.90;;;;;;5031469;28;19979;-86
2022/10/11 11:11:07;;;;;;;10.00;1.67;;;18.40;99.90;;;;;;5013552;28;20045;-83
2022/10/11 11:13:53;;;;;;;11.85;1.65;;;18.60;99.90;;;;;;5030949;28;20049;-83
2022/10/11 11:16:32;;;;;;;13.40;2.03;;;18.70;99.90;;;;;;5032459;28;20812;-88
2022/10/11 11:19:11;;;;;;;9.23;1.63;;;18.80;99.90;;;;;;5013185;28;20513;-84
2022/10/11 11:21:58;;;;;;;8.88;1.50;;;18.90;99.90;;;;;;5030297;28;20072;-86
2022/10/11 11:24:58;;;;;;;7.50;1.20;;;18.90;99.90;;;;;;5029842;28;20049;-89
2022/10/11 11:27:36;;;;;;;11.77;1.52;;;18.60;99.90;;;;;;5032072;28;20052;-92
2022/10/11 11:30:07;;;;;;;10.77;1.70;;;18.20;99.90;;;;;;5021593;28;20044;-82
2022/10/11 11:32:58;;;;;;;9.68;1.50;;;18.00;99.90;;;;;;5053247;28;20056;-92
2022/10/11 11:35:40;;;;;;;7.88;1.20;;;17.80;99.90;;;;;;5053673;28;20095;-91
2022/10/11 11:38:25;;;;;;;7.07;1.17;;;17.40;99.90;;;;;;5051499;28;20399;-93
2022/10/11 11:41:03;;;;;;;7.55;1.25;;;17.20;99.90;;;;;;5051307;28;20041;-88
2022/10/11 11:44:16;;;;;;;9.90;1.17;;;17.20;99.90;;;;;;5033266;28;20128;-87
2022/10/11 11:47:07;;;;;;;10.90;1.55;;;17.40;99.90;;;;;;4956692;28;20066;-84
2022/10/11 11:49:52;;;;;;;8.30;1.75;;;17.20;99.90;;;;;;4989017;28;20053;-87
2022/10/11 11:52:42;;;;;;;8.10;1.33;;;17.10;99.90;;;;;;4987545;28;20042;-91
2022/10/11 11:55:34;;;;;;;10.27;1.35;;;17.60;99.90;;;;;;4972990;28;20536;-89
2022/10/11 11:58:18;;;;;;;13.35;2.00;;;17.10;99.90;;;;;;4972902;28;20072;-87
2022/10/11 12:01:06;;;;;;;8.03;1.77;;;17.20;99.90;;;;;;4988685;28;20046;-88
2022/10/11 12:03:49;;;;;;;10.25;1.55;;;17.40;99.90;;;;;;4969518;28;20054;-88
2022/10/11 12:06:19;;;;;;;10.77;1.38;;;17.60;99.90;;;;;;4989714;28;20057;-89
2022/10/11 12:09:00;;;;;;;14.18;1.75;;;17.90;99.90;;;;;;5008520;28;20521;-88
2022/10/11 12:11:37;;;;;;;9.18;1.70;;;17.80;99.90;;;;;;4976153;28;20532;-87
2022/10/11 12:14:36;;;;;;;8.85;1.90;;;18.00;99.90;;;;;;5008485;28;20457;-87
2022/10/11 12:17:08;;;;;;;11.15;2.42;;;18.30;99.90;;;;;;4968975;28;20054;-87
2022/10/11 12:19:36;;;;;;;8.95;1.27;;;18.40;99.90;;;;;;4936709;28;20511;-81
2022/10/11 12:22:25;;;;;;;10.88;1.10;;;18.60;99.90;;;;;;4940578;28;20050;-85
2022/10/11 12:25:08;;;;;;;10.98;1.60;;;18.80;99.90;;;;;;4989120;28;20433;-90
2022/10/11 12:27:58;;;;;;;12.35;1.63;;;19.10;99.90;;;;;;4973756;28;20054;-83
2022/10/11 12:30:49;;;;;;;10.90;1.40;;;19.40;99.90;;;;;;4973951;28;20150;-87
2022/10/11 12:33:44;;;;;;;10.57;1.65;;;19.40;99.90;;;;;;4988667;28;20061;-89
2022/10/11 12:36:28;;;;;;;7.67;1.43;;;18.90;99.90;;;;;;4973789;28;20038;-84
2022/10/11 12:39:18;;;;;;;17.77;1.80;;;18.70;99.90;;;;;;4989306;28;20101;-85
2022/10/11 12:41:49;;;;;;;11.43;2.47;;;18.50;99.90;;;;;;4990199;28;20133;-78
2022/10/11 12:44:20;;;;;;;9.07;1.35;;;18.30;99.90;;;;;;4989512;28;20535;-84
2022/10/11 12:46:49;;;;;;;11.18;1.42;;;18.40;99.90;;;;;;4972085;28;20072;-83
2022/10/11 12:49:23;;;;;;;10.10;1.40;;;18.40;99.90;;;;;;4988470;28;20038;-88
2022/10/11 12:52:19;;;;;;;10.88;1.58;;;18.30;99.90;;;;;;4979326;28;20057;-83
2022/10/11 12:55:22;;;;;;;12.13;1.63;;;18.20;99.90;;;;;;5031161;28;20171;-94
2022/10/11 12:58:05;;;;;;;10.32;1.70;;;17.90;99.90;;;;;;5013444;28;20473;-91
2022/10/11 13:01:03;;;;;;;7.40;1.20;;;17.80;99.90;;;;;;5013531;28;20046;-90
2022/10/11 13:04:08;;;;;;;10.10;1.30;;;17.70;99.90;;;;;;5031036;28;20079;-91
2022/10/11 13:07:06;;;;;;;7.97;1.37;;;17.60;99.90;;;;;;5030357;28;20099;-84
2022/10/11 13:09:38;;;;;;;7.43;1.60;;;17.30;99.90;;;;;;5013653;28;20288;-90
2022/10/11 13:12:38;;;;;;;12.77;1.40;;;17.00;99.90;;;;;;5013110;28;20057;-86